sensor_id;sensor_type;location;lat;lon;timestamp;P1;durP1;ratioP1;P2;durP2;ratioP2
72123;SDS011;63818;37.134;-8.548;2023-01-28T00:03:47;8.1;;;6.5;;
72123;SDS011;63818;37.134;-8.548;2023-01-28T00:08:34;7.9;;;6.2;;
72123;SDS011;63818;37.134;-8.548;2023-01-28T00:13:20;7.6;;;6.0;;
72123;SDS011;63818;37.134;-8.548;2023-01-28T00:18:06;7.9;;;5.8;;
72123;SDS011;63818;37.134;-8.548;2023-01-28T00:22:55;8.9;;;6.3;;
72123;SDS011;63818;37.134;-8.548;2023-01-28T00:27:42;8.3;;;6.3;;
72123;SDS011;63818;37.134;-8.548;2023-01-28T00:32:29;7.5;;;5.7;;
72123;SDS011;63818;37.134;-8.548;2023-01-28T00:37:19;7.6;;;5.8;;
72123;SDS011;63818;37.134;-8.548;2023-01-28T00:42:05;7.7;;;6.3;;
72123;SDS011;63818;37.134;-8.548;2023-01-28T00:46:51;7.6;;;5.8;;
72123;SDS011;63818;37.134;-8.548;2023-01-28T00:51:50;8.1;;;6.1;;
72123;SDS011;63818;37.134;-8.548;2023-01-28T00:56:41;8.5;;;6.4;;
72123;SDS011;63818;37.134;-8.548;2023-01-28T01:01:27;8.1;;;5.9;;
72123;SDS011;63818;37.134;-8.548;2023-01-28T01:06:14;7.4;;;5.6;;
72123;SDS011;63818;37.134;-8.548;2023-01-28T01:11:00;7.0;;;5.3;;
72123;SDS011;63818;37.134;-8.548;2023-01-28T01:15:47;7.3;;;5.4;;
72123;SDS011;63818;37.134;-8.548;2023-01-28T01:20:32;7.0;;;5.5;;
72123;SDS011;63818;37.134;-8.548;2023-01-28T01:25:22;7.1;;;5.5;;
72123;SDS011;63818;37.134;-8.548;2023-01-28T01:30:08;7.7;;;5.6;;
72123;SDS011;63818;37.134;-8.548;2023-01-28T01:34:56;7.6;;;5.5;;
72123;SDS011;63818;37.134;-8.548;2023-01-28T01:39:42;7.6;;;5.9;;
72123;SDS011;63818;37.134;-8.548;2023-01-28T01:49:49;7.4;;;6.2;;
72123;SDS011;63818;37.134;-8.548;2023-01-28T01:54:38;7.9;;;7.2;;
72123;SDS011;63818;37.134;-8.548;2023-01-28T01:59:29;9.4;;;8.8;;
72123;SDS011;63818;37.134;-8.548;2023-01-28T02:04:24;9.7;;;8.3;;
72123;SDS011;63818;37.134;-8.548;2023-01-28T02:09:23;9.0;;;7.6;;
72123;SDS011;63818;37.134;-8.548;2023-01-28T02:14:15;9.5;;;8.6;;
72123;SDS011;63818;37.134;-8.548;2023-01-28T02:19:09;9.4;;;8.5;;
72123;SDS011;63818;37.134;-8.548;2023-01-28T02:24:05;9.0;;;8.5;;
72123;SDS011;63818;37.134;-8.548;2023-01-28T02:29:02;9.5;;;9.0;;
72123;SDS011;63818;37.134;-8.548;2023-01-28T02:33:51;10.5;;;8.4;;
72123;SDS011;63818;37.134;-8.548;2023-01-28T02:38:44;11.3;;;8.2;;
72123;SDS011;63818;37.134;-8.548;2023-01-28T02:43:34;11.0;;;9.5;;
72123;SDS011;63818;37.134;-8.548;2023-01-28T02:48:28;10.3;;;9.6;;
72123;SDS011;63818;37.134;-8.548;2023-01-28T02:53:17;9.9;;;9.2;;
72123;SDS011;63818;37.134;-8.548;2023-01-28T02:58:12;9.9;;;9.3;;
72123;SDS011;63818;37.134;-8.548;2023-01-28T03:03:06;11.4;;;10.8;;
72123;SDS011;63818;37.134;-8.548;2023-01-28T03:07:57;10.9;;;10.4;;
72123;SDS011;63818;37.134;-8.548;2023-01-28T03:12:58;10.2;;;9.6;;
72123;SDS011;63818;37.134;-8.548;2023-01-28T03:17:51;11.3;;;10.7;;
72123;SDS011;63818;37.134;-8.548;2023-01-28T03:22:41;11.2;;;10.5;;
72123;SDS011;63818;37.134;-8.548;2023-01-28T03:27:33;11.4;;;10.7;;
72123;SDS011;63818;37.134;-8.548;2023-01-28T03:32:31;12.5;;;11.8;;
72123;SDS011;63818;37.134;-8.548;2023-01-28T03:37:18;13.0;;;12.1;;
72123;SDS011;63818;37.134;-8.548;2023-01-28T03:42:05;12.6;;;11.8;;
72123;SDS011;63818;37.134;-8.548;2023-01-28T03:46:54;14.3;;;13.5;;
72123;SDS011;63818;37.134;-8.548;2023-01-28T03:51:40;15.5;;;14.6;;
72123;SDS011;63818;37.134;-8.548;2023-01-28T03:56:26;14.9;;;14.1;;
72123;SDS011;63818;37.134;-8.548;2023-01-28T04:01:13;15.2;;;14.3;;
72123;SDS011;63818;37.134;-8.548;2023-01-28T04:05:59;14.6;;;13.8;;
72123;SDS011;63818;37.134;-8.548;2023-01-28T04:10:47;16.1;;;15.3;;
72123;SDS011;63818;37.134;-8.548;2023-01-28T04:15:33;17.8;;;16.9;;
72123;SDS011;63818;37.134;-8.548;2023-01-28T04:20:21;15.8;;;14.9;;
72123;SDS011;63818;37.134;-8.548;2023-01-28T04:25:10;16.6;;;15.7;;
72123;SDS011;63818;37.134;-8.548;2023-01-28T04:29:56;19.0;;;18.0;;
72123;SDS011;63818;37.134;-8.548;2023-01-28T04:34:45;19.2;;;18.0;;
72123;SDS011;63818;37.134;-8.548;2023-01-28T04:39:31;18.7;;;17.5;;
72123;SDS011;63818;37.134;-8.548;2023-01-28T04:44:17;17.5;;;16.5;;
72123;SDS011;63818;37.134;-8.548;2023-01-28T04:49:05;18.0;;;16.8;;
72123;SDS011;63818;37.134;-8.548;2023-01-28T04:53:54;19.0;;;17.8;;
72123;SDS011;63818;37.134;-8.548;2023-01-28T04:58:39;18.4;;;17.4;;
72123;SDS011;63818;37.134;-8.548;2023-01-28T05:03:25;18.5;;;17.5;;
72123;SDS011;63818;37.134;-8.548;2023-01-28T05:08:15;20.1;;;19.0;;
72123;SDS011;63818;37.134;-8.548;2023-01-28T05:13:03;22.4;;;21.0;;
72123;SDS011;63818;37.134;-8.548;2023-01-28T05:17:49;21.6;;;20.3;;
72123;SDS011;63818;37.134;-8.548;2023-01-28T05:22:38;20.7;;;19.6;;
72123;SDS011;63818;37.134;-8.548;2023-01-28T05:27:26;20.8;;;19.7;;
72123;SDS011;63818;37.134;-8.548;2023-01-28T05:32:12;20.8;;;19.6;;
72123;SDS011;63818;37.134;-8.548;2023-01-28T05:37:00;22.6;;;21.3;;
72123;SDS011;63818;37.134;-8.548;2023-01-28T05:41:46;22.5;;;21.2;;
72123;SDS011;63818;37.134;-8.548;2023-01-28T05:46:34;23.3;;;22.0;;
72123;SDS011;63818;37.134;-8.548;2023-01-28T05:51:21;22.5;;;21.2;;
72123;SDS011;63818;37.134;-8.548;2023-01-28T05:56:08;19.3;;;18.2;;
72123;SDS011;63818;37.134;-8.548;2023-01-28T06:00:58;20.4;;;19.3;;
72123;SDS011;63818;37.134;-8.548;2023-01-28T06:05:46;21.5;;;20.5;;
72123;SDS011;63818;37.134;-8.548;2023-01-28T06:10:32;20.6;;;19.5;;
72123;SDS011;63818;37.134;-8.548;2023-01-28T06:15:18;20.1;;;19.0;;
72123;SDS011;63818;37.134;-8.548;2023-01-28T06:20:10;21.8;;;20.6;;
72123;SDS011;63818;37.134;-8.548;2023-01-28T06:24:57;25.8;;;24.5;;
72123;SDS011;63818;37.134;-8.548;2023-01-28T06:29:44;26.1;;;24.7;;
72123;SDS011;63818;37.134;-8.548;2023-01-28T06:34:35;23.0;;;21.7;;
72123;SDS011;63818;37.134;-8.548;2023-01-28T06:39:21;22.9;;;21.8;;
72123;SDS011;63818;37.134;-8.548;2023-01-28T06:44:07;23.4;;;22.2;;
72123;SDS011;63818;37.134;-8.548;2023-01-28T06:48:54;22.0;;;20.7;;
72123;SDS011;63818;37.134;-8.548;2023-01-28T06:53:43;22.6;;;21.3;;
72123;SDS011;63818;37.134;-8.548;2023-01-28T06:58:31;22.9;;;21.7;;
72123;SDS011;63818;37.134;-8.548;2023-01-28T07:03:25;22.7;;;21.6;;
72123;SDS011;63818;37.134;-8.548;2023-01-28T07:08:14;24.8;;;23.6;;
72123;SDS011;63818;37.134;-8.548;2023-01-28T07:13:00;24.7;;;23.2;;
72123;SDS011;63818;37.134;-8.548;2023-01-28T07:17:50;21.6;;;20.3;;
72123;SDS011;63818;37.134;-8.548;2023-01-28T07:22:37;21.3;;;20.2;;
72123;SDS011;63818;37.134;-8.548;2023-01-28T07:27:24;26.2;;;24.8;;
72123;SDS011;63818;37.134;-8.548;2023-01-28T07:32:13;26.1;;;24.7;;
72123;SDS011;63818;37.134;-8.548;2023-01-28T07:36:59;24.3;;;22.9;;
72123;SDS011;63818;37.134;-8.548;2023-01-28T07:41:46;25.0;;;23.6;;
72123;SDS011;63818;37.134;-8.548;2023-01-28T07:46:35;26.3;;;24.9;;
72123;SDS011;63818;37.134;-8.548;2023-01-28T07:51:24;26.2;;;24.8;;
72123;SDS011;63818;37.134;-8.548;2023-01-28T07:56:10;23.2;;;22.0;;
72123;SDS011;63818;37.134;-8.548;2023-01-28T08:00:57;22.1;;;21.0;;
72123;SDS011;63818;37.134;-8.548;2023-01-28T08:05:44;21.5;;;20.4;;
72123;SDS011;63818;37.134;-8.548;2023-01-28T08:10:32;24.0;;;22.7;;
72123;SDS011;63818;37.134;-8.548;2023-01-28T08:15:25;25.7;;;24.4;;
72123;SDS011;63818;37.134;-8.548;2023-01-28T08:20:12;24.3;;;22.9;;
72123;SDS011;63818;37.134;-8.548;2023-01-28T08:24:58;25.6;;;24.1;;
72123;SDS011;63818;37.134;-8.548;2023-01-28T08:29:48;24.0;;;22.6;;
72123;SDS011;63818;37.134;-8.548;2023-01-28T08:34:34;20.1;;;18.9;;
72123;SDS011;63818;37.134;-8.548;2023-01-28T08:39:23;22.1;;;21.0;;
72123;SDS011;63818;37.134;-8.548;2023-01-28T08:44:14;24.2;;;23.0;;
72123;SDS011;63818;37.134;-8.548;2023-01-28T08:49:00;23.9;;;22.2;;
72123;SDS011;63818;37.134;-8.548;2023-01-28T08:53:46;26.7;;;24.9;;
72123;SDS011;63818;37.134;-8.548;2023-01-28T08:58:35;27.7;;;26.3;;
72123;SDS011;63818;37.134;-8.548;2023-01-28T09:03:24;24.5;;;23.2;;
72123;SDS011;63818;37.134;-8.548;2023-01-28T09:08:10;22.1;;;20.9;;
72123;SDS011;63818;37.134;-8.548;2023-01-28T09:13:01;21.4;;;20.3;;
72123;SDS011;63818;37.134;-8.548;2023-01-28T09:17:49;22.1;;;21.0;;
72123;SDS011;63818;37.134;-8.548;2023-01-28T09:22:40;22.6;;;21.3;;
72123;SDS011;63818;37.134;-8.548;2023-01-28T09:27:28;22.5;;;21.0;;
72123;SDS011;63818;37.134;-8.548;2023-01-28T09:32:13;22.1;;;20.8;;
72123;SDS011;63818;37.134;-8.548;2023-01-28T09:37:00;24.3;;;23.0;;
72123;SDS011;63818;37.134;-8.548;2023-01-28T09:41:47;23.8;;;22.5;;
72123;SDS011;63818;37.134;-8.548;2023-01-28T09:46:45;21.4;;;20.2;;
72123;SDS011;63818;37.134;-8.548;2023-01-28T09:51:33;23.0;;;21.6;;
72123;SDS011;63818;37.134;-8.548;2023-01-28T09:56:27;21.7;;;20.6;;
72123;SDS011;63818;37.134;-8.548;2023-01-28T10:01:21;21.6;;;20.5;;
72123;SDS011;63818;37.134;-8.548;2023-01-28T10:06:25;24.1;;;22.7;;
72123;SDS011;63818;37.134;-8.548;2023-01-28T10:11:19;22.7;;;21.5;;
72123;SDS011;63818;37.134;-8.548;2023-01-28T10:16:14;22.0;;;20.8;;
72123;SDS011;63818;37.134;-8.548;2023-01-28T10:21:09;23.3;;;22.1;;
72123;SDS011;63818;37.134;-8.548;2023-01-28T10:26:02;25.4;;;24.1;;
72123;SDS011;63818;37.134;-8.548;2023-01-28T10:31:00;25.3;;;23.9;;
72123;SDS011;63818;37.134;-8.548;2023-01-28T10:35:52;22.2;;;20.9;;
72123;SDS011;63818;37.134;-8.548;2023-01-28T10:40:41;22.0;;;20.7;;
72123;SDS011;63818;37.134;-8.548;2023-01-28T10:45:29;24.9;;;23.7;;
72123;SDS011;63818;37.134;-8.548;2023-01-28T10:50:25;22.5;;;21.3;;
72123;SDS011;63818;37.134;-8.548;2023-01-28T10:55:16;18.8;;;17.8;;
72123;SDS011;63818;37.134;-8.548;2023-01-28T11:00:16;22.6;;;21.4;;
72123;SDS011;63818;37.134;-8.548;2023-01-28T11:05:16;24.2;;;22.8;;
72123;SDS011;63818;37.134;-8.548;2023-01-28T11:10:20;22.4;;;21.1;;
72123;SDS011;63818;37.134;-8.548;2023-01-28T11:15:17;23.1;;;21.9;;
72123;SDS011;63818;37.134;-8.548;2023-01-28T11:20:12;22.9;;;21.5;;
72123;SDS011;63818;37.134;-8.548;2023-01-28T11:25:05;20.3;;;19.0;;
72123;SDS011;63818;37.134;-8.548;2023-01-28T11:29:57;19.1;;;18.0;;
72123;SDS011;63818;37.134;-8.548;2023-01-28T11:34:50;19.8;;;18.7;;
72123;SDS011;63818;37.134;-8.548;2023-01-28T11:39:38;19.8;;;18.8;;
72123;SDS011;63818;37.134;-8.548;2023-01-28T11:44:25;19.3;;;18.3;;
72123;SDS011;63818;37.134;-8.548;2023-01-28T11:49:13;18.2;;;17.2;;
72123;SDS011;63818;37.134;-8.548;2023-01-28T11:54:24;17.4;;;16.4;;
72123;SDS011;63818;37.134;-8.548;2023-01-28T11:59:30;19.9;;;18.6;;
72123;SDS011;63818;37.134;-8.548;2023-01-28T12:04:25;19.7;;;18.4;;
72123;SDS011;63818;37.134;-8.548;2023-01-28T12:09:29;17.0;;;16.0;;
72123;SDS011;63818;37.134;-8.548;2023-01-28T12:14:22;18.1;;;17.1;;
72123;SDS011;63818;37.134;-8.548;2023-01-28T12:19:58;16.9;;;16.0;;
72123;SDS011;63818;37.134;-8.548;2023-01-28T12:24:56;14.4;;;13.6;;
72123;SDS011;63818;37.134;-8.548;2023-01-28T12:29:53;14.4;;;13.7;;
72123;SDS011;63818;37.134;-8.548;2023-01-28T12:34:51;13.6;;;12.9;;
72123;SDS011;63818;37.134;-8.548;2023-01-28T12:39:55;14.1;;;13.3;;
72123;SDS011;63818;37.134;-8.548;2023-01-28T12:44:56;14.1;;;13.3;;
72123;SDS011;63818;37.134;-8.548;2023-01-28T12:49:49;13.2;;;12.5;;
72123;SDS011;63818;37.134;-8.548;2023-01-28T12:54:44;13.0;;;12.2;;
72123;SDS011;63818;37.134;-8.548;2023-01-28T12:59:41;10.9;;;9.7;;
72123;SDS011;63818;37.134;-8.548;2023-01-28T13:04:33;11.2;;;9.0;;
72123;SDS011;63818;37.134;-8.548;2023-01-28T13:09:23;12.9;;;10.3;;
72123;SDS011;63818;37.134;-8.548;2023-01-28T13:14:12;11.9;;;9.2;;
72123;SDS011;63818;37.134;-8.548;2023-01-28T13:19:10;9.7;;;7.4;;
72123;SDS011;63818;37.134;-8.548;2023-01-28T13:24:22;8.0;;;7.0;;
72123;SDS011;63818;37.134;-8.548;2023-01-28T13:29:19;7.0;;;6.6;;
72123;SDS011;63818;37.134;-8.548;2023-01-28T13:34:24;7.1;;;6.7;;
72123;SDS011;63818;37.134;-8.548;2023-01-28T13:39:17;7.2;;;6.4;;
72123;SDS011;63818;37.134;-8.548;2023-01-28T13:44:20;6.8;;;5.5;;
72123;SDS011;63818;37.134;-8.548;2023-01-28T13:49:14;6.2;;;4.8;;
72123;SDS011;63818;37.134;-8.548;2023-01-28T13:54:04;7.0;;;4.8;;
72123;SDS011;63818;37.134;-8.548;2023-01-28T14:11:14;6.5;;;4.3;;
72123;SDS011;63818;37.134;-8.548;2023-01-28T14:16:16;7.5;;;4.3;;
72123;SDS011;63818;37.134;-8.548;2023-01-28T14:21:19;7.5;;;4.3;;
72123;SDS011;63818;37.134;-8.548;2023-01-28T14:26:14;5.6;;;4.1;;
72123;SDS011;63818;37.134;-8.548;2023-01-28T14:31:06;5.1;;;4.1;;
72123;SDS011;63818;37.134;-8.548;2023-01-28T14:35:58;5.4;;;4.1;;
72123;SDS011;63818;37.134;-8.548;2023-01-28T14:40:44;5.7;;;4.3;;
72123;SDS011;63818;37.134;-8.548;2023-01-28T14:45:48;5.5;;;4.3;;
72123;SDS011;63818;37.134;-8.548;2023-01-28T14:50:57;5.7;;;4.2;;
72123;SDS011;63818;37.134;-8.548;2023-01-28T14:56:03;5.7;;;4.1;;
72123;SDS011;63818;37.134;-8.548;2023-01-28T15:00:59;5.9;;;4.2;;
72123;SDS011;63818;37.134;-8.548;2023-01-28T15:05:46;6.3;;;4.4;;
72123;SDS011;63818;37.134;-8.548;2023-01-28T15:10:36;5.7;;;4.3;;
72123;SDS011;63818;37.134;-8.548;2023-01-28T15:15:27;6.5;;;4.3;;
72123;SDS011;63818;37.134;-8.548;2023-01-28T15:20:18;7.0;;;4.4;;
72123;SDS011;63818;37.134;-8.548;2023-01-28T15:25:15;6.9;;;4.5;;
72123;SDS011;63818;37.134;-8.548;2023-01-28T15:30:02;6.8;;;4.4;;
72123;SDS011;63818;37.134;-8.548;2023-01-28T15:34:48;5.7;;;4.2;;
72123;SDS011;63818;37.134;-8.548;2023-01-28T15:39:34;6.0;;;4.2;;
72123;SDS011;63818;37.134;-8.548;2023-01-28T15:44:23;6.0;;;4.2;;
72123;SDS011;63818;37.134;-8.548;2023-01-28T15:49:16;5.6;;;4.2;;
72123;SDS011;63818;37.134;-8.548;2023-01-28T15:54:04;5.3;;;4.1;;
72123;SDS011;63818;37.134;-8.548;2023-01-28T15:58:54;5.4;;;4.2;;
72123;SDS011;63818;37.134;-8.548;2023-01-28T16:03:45;5.7;;;4.1;;
72123;SDS011;63818;37.134;-8.548;2023-01-28T16:08:38;5.9;;;4.0;;
72123;SDS011;63818;37.134;-8.548;2023-01-28T16:13:25;5.5;;;4.0;;
72123;SDS011;63818;37.134;-8.548;2023-01-28T16:18:15;7.2;;;4.1;;
72123;SDS011;63818;37.134;-8.548;2023-01-28T16:23:24;8.2;;;4.3;;
72123;SDS011;63818;37.134;-8.548;2023-01-28T16:28:15;6.6;;;4.4;;
72123;SDS011;63818;37.134;-8.548;2023-01-28T16:33:13;6.9;;;4.4;;
72123;SDS011;63818;37.134;-8.548;2023-01-28T16:38:07;6.8;;;4.4;;
72123;SDS011;63818;37.134;-8.548;2023-01-28T16:42:58;5.8;;;4.3;;
72123;SDS011;63818;37.134;-8.548;2023-01-28T16:47:47;6.1;;;4.4;;
72123;SDS011;63818;37.134;-8.548;2023-01-28T16:52:39;6.3;;;4.4;;
72123;SDS011;63818;37.134;-8.548;2023-01-28T16:57:24;6.0;;;4.4;;
72123;SDS011;63818;37.134;-8.548;2023-01-28T17:02:15;6.1;;;4.4;;
72123;SDS011;63818;37.134;-8.548;2023-01-28T17:07:01;8.5;;;4.5;;
72123;SDS011;63818;37.134;-8.548;2023-01-28T17:11:54;8.2;;;4.5;;
72123;SDS011;63818;37.134;-8.548;2023-01-28T17:16:40;6.0;;;4.5;;
72123;SDS011;63818;37.134;-8.548;2023-01-28T17:21:28;6.9;;;4.5;;
72123;SDS011;63818;37.134;-8.548;2023-01-28T17:26:14;6.8;;;4.4;;
72123;SDS011;63818;37.134;-8.548;2023-01-28T17:31:00;7.1;;;4.3;;
72123;SDS011;63818;37.134;-8.548;2023-01-28T17:35:54;7.6;;;4.4;;
72123;SDS011;63818;37.134;-8.548;2023-01-28T17:40:43;7.3;;;4.6;;
72123;SDS011;63818;37.134;-8.548;2023-01-28T17:45:34;8.1;;;4.7;;
72123;SDS011;63818;37.134;-8.548;2023-01-28T17:50:24;8.5;;;5.1;;
72123;SDS011;63818;37.134;-8.548;2023-01-28T17:55:12;7.9;;;5.0;;
72123;SDS011;63818;37.134;-8.548;2023-01-28T17:59:58;7.6;;;4.8;;
72123;SDS011;63818;37.134;-8.548;2023-01-28T18:04:48;9.0;;;5.4;;
72123;SDS011;63818;37.134;-8.548;2023-01-28T18:09:36;11.9;;;6.2;;
72123;SDS011;63818;37.134;-8.548;2023-01-28T18:14:24;13.9;;;6.2;;
72123;SDS011;63818;37.134;-8.548;2023-01-28T18:19:22;12.5;;;5.8;;
72123;SDS011;63818;37.134;-8.548;2023-01-28T18:24:08;8.9;;;5.3;;
72123;SDS011;63818;37.134;-8.548;2023-01-28T18:28:54;7.7;;;5.3;;
72123;SDS011;63818;37.134;-8.548;2023-01-28T18:33:40;11.9;;;5.6;;
72123;SDS011;63818;37.134;-8.548;2023-01-28T18:38:26;11.9;;;5.4;;
72123;SDS011;63818;37.134;-8.548;2023-01-28T18:43:14;8.6;;;5.1;;
72123;SDS011;63818;37.134;-8.548;2023-01-28T18:48:00;10.2;;;5.8;;
72123;SDS011;63818;37.134;-8.548;2023-01-28T18:52:46;10.5;;;6.2;;
72123;SDS011;63818;37.134;-8.548;2023-01-28T18:57:37;8.5;;;5.7;;
72123;SDS011;63818;37.134;-8.548;2023-01-28T19:02:23;10.3;;;5.7;;
72123;SDS011;63818;37.134;-8.548;2023-01-28T19:07:09;13.7;;;5.9;;
72123;SDS011;63818;37.134;-8.548;2023-01-28T19:11:56;11.9;;;5.8;;
72123;SDS011;63818;37.134;-8.548;2023-01-28T19:16:42;9.5;;;6.0;;
72123;SDS011;63818;37.134;-8.548;2023-01-28T19:21:29;11.9;;;6.5;;
72123;SDS011;63818;37.134;-8.548;2023-01-28T19:26:16;13.3;;;6.9;;
72123;SDS011;63818;37.134;-8.548;2023-01-28T19:31:04;14.2;;;7.9;;
72123;SDS011;63818;37.134;-8.548;2023-01-28T19:35:55;18.6;;;11.0;;
72123;SDS011;63818;37.134;-8.548;2023-01-28T19:40:42;20.1;;;11.9;;
72123;SDS011;63818;37.134;-8.548;2023-01-28T19:45:28;17.8;;;10.6;;
72123;SDS011;63818;37.134;-8.548;2023-01-28T19:50:13;22.6;;;13.1;;
72123;SDS011;63818;37.134;-8.548;2023-01-28T19:54:59;26.1;;;13.9;;
72123;SDS011;63818;37.134;-8.548;2023-01-28T19:59:45;25.1;;;13.5;;
72123;SDS011;63818;37.134;-8.548;2023-01-28T20:04:34;28.8;;;16.1;;
72123;SDS011;63818;37.134;-8.548;2023-01-28T20:09:20;29.2;;;16.8;;
72123;SDS011;63818;37.134;-8.548;2023-01-28T20:14:07;24.7;;;14.7;;
72123;SDS011;63818;37.134;-8.548;2023-01-28T20:18:53;22.5;;;12.9;;
72123;SDS011;63818;37.134;-8.548;2023-01-28T20:23:41;20.7;;;11.6;;
72123;SDS011;63818;37.134;-8.548;2023-01-28T20:28:27;18.6;;;10.8;;
72123;SDS011;63818;37.134;-8.548;2023-01-28T20:33:13;17.6;;;10.4;;
72123;SDS011;63818;37.134;-8.548;2023-01-28T20:37:59;16.0;;;9.7;;
72123;SDS011;63818;37.134;-8.548;2023-01-28T20:42:45;17.0;;;9.9;;
72123;SDS011;63818;37.134;-8.548;2023-01-28T20:47:31;18.7;;;10.6;;
72123;SDS011;63818;37.134;-8.548;2023-01-28T20:52:19;17.8;;;10.0;;
72123;SDS011;63818;37.134;-8.548;2023-01-28T20:57:05;18.9;;;9.8;;
72123;SDS011;63818;37.134;-8.548;2023-01-28T21:01:51;19.4;;;10.4;;
72123;SDS011;63818;37.134;-8.548;2023-01-28T21:06:37;17.1;;;9.5;;
72123;SDS011;63818;37.134;-8.548;2023-01-28T21:11:32;17.0;;;8.5;;
72123;SDS011;63818;37.134;-8.548;2023-01-28T21:16:21;18.0;;;8.7;;
72123;SDS011;63818;37.134;-8.548;2023-01-28T21:21:08;14.5;;;8.4;;
72123;SDS011;63818;37.134;-8.548;2023-01-28T21:26:04;11.2;;;8.0;;
72123;SDS011;63818;37.134;-8.548;2023-01-28T21:31:08;14.9;;;9.8;;
72123;SDS011;63818;37.134;-8.548;2023-01-28T21:35:58;19.9;;;12.2;;
72123;SDS011;63818;37.134;-8.548;2023-01-28T21:40:46;20.3;;;13.0;;
72123;SDS011;63818;37.134;-8.548;2023-01-28T21:45:34;20.9;;;14.0;;
72123;SDS011;63818;37.134;-8.548;2023-01-28T21:50:20;20.1;;;15.3;;
72123;SDS011;63818;37.134;-8.548;2023-01-28T21:55:11;18.5;;;15.6;;
72123;SDS011;63818;37.134;-8.548;2023-01-28T21:59:57;22.0;;;16.5;;
72123;SDS011;63818;37.134;-8.548;2023-01-28T22:04:44;20.8;;;16.0;;
72123;SDS011;63818;37.134;-8.548;2023-01-28T22:09:30;20.5;;;15.8;;
72123;SDS011;63818;37.134;-8.548;2023-01-28T22:14:20;20.9;;;16.4;;
72123;SDS011;63818;37.134;-8.548;2023-01-28T22:19:07;17.6;;;14.3;;
72123;SDS011;63818;37.134;-8.548;2023-01-28T22:23:57;17.9;;;13.4;;
72123;SDS011;63818;37.134;-8.548;2023-01-28T22:28:43;16.6;;;12.2;;
72123;SDS011;63818;37.134;-8.548;2023-01-28T22:33:29;16.6;;;11.1;;
72123;SDS011;63818;37.134;-8.548;2023-01-28T22:38:15;19.1;;;11.9;;
72123;SDS011;63818;37.134;-8.548;2023-01-28T22:43:03;19.0;;;12.7;;
72123;SDS011;63818;37.134;-8.548;2023-01-28T22:47:51;19.1;;;14.5;;
72123;SDS011;63818;37.134;-8.548;2023-01-28T22:52:37;19.9;;;16.7;;
72123;SDS011;63818;37.134;-8.548;2023-01-28T22:57:23;20.5;;;16.4;;
72123;SDS011;63818;37.134;-8.548;2023-01-28T23:02:09;21.8;;;15.9;;
72123;SDS011;63818;37.134;-8.548;2023-01-28T23:07:08;21.3;;;15.3;;
72123;SDS011;63818;37.134;-8.548;2023-01-28T23:11:56;19.3;;;14.9;;
72123;SDS011;63818;37.134;-8.548;2023-01-28T23:16:46;21.6;;;16.9;;
72123;SDS011;63818;37.134;-8.548;2023-01-28T23:21:35;27.4;;;20.2;;
72123;SDS011;63818;37.134;-8.548;2023-01-28T23:26:23;26.4;;;20.8;;
72123;SDS011;63818;37.134;-8.548;2023-01-28T23:31:12;28.0;;;21.9;;
72123;SDS011;63818;37.134;-8.548;2023-01-28T23:35:59;28.1;;;22.7;;
72123;SDS011;63818;37.134;-8.548;2023-01-28T23:40:46;23.8;;;21.8;;
72123;SDS011;63818;37.134;-8.548;2023-01-28T23:45:31;23.3;;;21.3;;
72123;SDS011;63818;37.134;-8.548;2023-01-28T23:50:21;22.5;;;20.8;;
72123;SDS011;63818;37.134;-8.548;2023-01-28T23:55:10;24.5;;;22.8;;
72123;SDS011;63818;37.134;-8.548;2023-01-28T23:59:56;23.2;;;21.8;;
